Bookmark and Share
Track history (hours):
 

Prevelis

Last reported at 2014-Apr-17 21:28 UTC. Time now 2014-Apr-17 21:49 UTC.
Position N 36°47' E 024°29'.

Length 143 m; draft 5.5 m.

Type: Passenger vessel. MMSI: 239297000.

NotesDate/timePositionNaut miles runAvg speedWind from/ knotsBaromVisibWave heightAir tempDewpointWater temp
2014-Apr-17 21:28N 36°47' E 024°29'4 4.5
2014-Apr-17 20:33N 36°43' E 024°27'1312.4
2014-Apr-17 19:32N 36°53' E 024°17'5116.6
2014-Apr-17 16:29N 37°37' E 023°44'1516.1
2014-Apr-17 15:33N 37°51' E 023°37'6 6.3
2014-Apr-17 14:34N 37°57' E 023°38'0 0.0
2014-Apr-17 13:34N 37°57' E 023°38'0 0.0
2014-Apr-17 12:33N 37°57' E 023°38'0 0.0
2014-Apr-17 11:34N 37°57' E 023°38'0 0.0
2014-Apr-17 10:34N 37°57' E 023°38'0 0.0
2014-Apr-17 09:33N 37°57' E 023°38'0 0.0
2014-Apr-17 08:34N 37°57' E 023°38'0 0.0
2014-Apr-17 07:34N 37°57' E 023°38'0 0.0
2014-Apr-17 06:34N 37°57' E 023°38'0 0.0
2014-Apr-17 05:33N 37°57' E 023°38'0 0.0
2014-Apr-17 04:34N 37°57' E 023°38'0 0.0
2014-Apr-17 03:34N 37°57' E 023°38'2 1.9
2014-Apr-17 02:33N 37°55' E 023°37'1413.8
2014-Apr-17 01:33N 37°43' E 023°45'5217.0
2014-Apr-16 22:30N 36°57' E 024°14'1616.5
2014-Apr-16 21:31N 36°43' E 024°26'7 6.0
2014-Apr-16 20:26N 36°45' E 024°33'1516.8
2014-Apr-16 19:33N 36°37' E 024°49'1917.3
2014-Apr-16 18:26N 36°27' E 025°09'1315.1
2014-Apr-16 17:33N 36°23' E 025°25'4 3.8
2014-Apr-16 16:33N 36°22' E 025°21'1515.0
2014-Apr-16 15:33N 36°20' E 025°39'7 6.6
2014-Apr-16 14:33N 36°17' E 025°47'1717.0
2014-Apr-16 13:33N 36°05' E 026°01'68 3.0
2014-Apr-15 15:19N 35°58' E 027°25'22 8.1
2014-Apr-15 12:33N 35°37' E 027°14'7711.0
2014-Apr-15 05:34N 36°14' E 025°51'2613.0
2014-Apr-15 03:34N 36°21' E 025°20'5 4.5
2014-Apr-15 02:33N 36°23' E 025°26'1111.6
2014-Apr-15 01:34N 36°26' E 025°12'1717.1
2014-Apr-15 00:34N 36°35' E 024°54'1717.0
2014-Apr-14 23:33N 36°44' E 024°36'7 7.3
2014-Apr-14 22:34N 36°43' E 024°27'1211.0
2014-Apr-14 21:30N 36°53' E 024°18'5116.9
2014-Apr-14 18:31N 37°36' E 023°46'1616.5
2014-Apr-14 17:33N 37°50' E 023°37'7 6.5
2014-Apr-14 16:33N 37°57' E 023°38'0 0.0
2014-Apr-14 15:34N 37°57' E 023°38'0 0.0
2014-Apr-14 14:32N 37°57' E 023°38'0 0.0
2014-Apr-14 13:33N 37°57' E 023°38'0 0.0
2014-Apr-14 10:32N 37°57' E 023°38'0 0.0
2014-Apr-14 09:33N 37°57' E 023°38'0 0.0
2014-Apr-14 08:33N 37°57' E 023°38'0 0.1
2014-Apr-14 07:34N 37°57' E 023°38'1313.3
2014-Apr-14 06:33N 37°44' E 023°43'11514.4
2014-Apr-13 22:33N 36°23' E 025°26'8 8.0
2014-Apr-13 21:33N 36°19' E 025°34'7 7.3
2014-Apr-13 20:33N 36°20' E 025°43'1717.3
2014-Apr-13 19:33N 36°04' E 025°35'1717.4
2014-Apr-13 18:33N 35°48' E 025°28'1717.2
2014-Apr-13 17:33N 35°32' E 025°19'12 5.8
2014-Apr-13 15:33N 35°22' E 025°13'22 0.7
2014-Apr-12 06:31N 35°41' E 025°24'1717.3
2014-Apr-12 05:33N 35°57' E 025°33'1817.5
2014-Apr-12 04:33N 36°13' E 025°41'8 8.1
2014-Apr-12 03:33N 36°21' E 025°41'1616.2
2014-Apr-12 02:33N 36°21' E 025°21'5 4.6
2014-Apr-12 01:33N 36°23' E 025°26'7 6.9
2014-Apr-12 00:33N 36°22' E 025°17'1716.8
2014-Apr-11 23:33N 36°32' E 024°60'1717.2
2014-Apr-11 22:33N 36°41' E 024°41'12 9.2
2014-Apr-11 21:14N 36°43' E 024°27'0 0.7
2014-Apr-11 20:32N 36°43' E 024°26'1717.2
2014-Apr-11 19:33N 36°57' E 024°14'5117.1
2014-Apr-11 16:33N 37°41' E 023°42'1515.2
2014-Apr-11 15:34N 37°56' E 023°37'2 1.2
2014-Apr-11 14:18N 37°57' E 023°38'0 0.0
2014-Apr-11 13:31N 37°57' E 023°38'0 0.0
2014-Apr-11 12:16N 37°57' E 023°38'0 0.0
2014-Apr-11 11:31N 37°57' E 023°38'0 0.0
2014-Apr-11 10:33N 37°57' E 023°38'0 0.0
2014-Apr-11 09:21N 37°57' E 023°38'0 0.0
2014-Apr-11 07:25N 37°57' E 023°38'0 0.0
2014-Apr-11 05:15N 37°57' E 023°38'0 0.0
2014-Apr-11 04:16N 37°57' E 023°38'0 0.3
2014-Apr-11 03:12N 37°57' E 023°38'813.1
2014-Apr-11 02:33N 37°49' E 023°41'5117.1
2014-Apr-10 23:33N 37°03' E 024°11'1916.0
2014-Apr-10 22:21N 36°46' E 024°23'4 5.6
2014-Apr-10 21:33N 36°43' E 024°26'9 8.9
2014-Apr-10 20:33N 36°43' E 024°38'1615.7
2014-Apr-10 19:33N 36°35' E 024°54'1515.4
2014-Apr-10 18:33N 36°30' E 025°13'1312.5
2014-Apr-10 17:33N 36°23' E 025°26'4 3.9
2014-Apr-10 16:33N 36°22' E 025°21'1414.1
2014-Apr-10 15:32N 36°20' E 025°39'9 8.8
2014-Apr-10 14:33N 36°15' E 025°48'1717.2
2014-Apr-10 13:33N 36°04' E 026°04'1717.4
2014-Apr-10 12:33N 35°52' E 026°20'51 2.1
2014-Apr-09 12:23N 35°26' E 027°13'1213.8
2014-Apr-09 11:32N 35°26' E 026°59'6015.1
2014-Apr-09 07:33N 36°05' E 026°02'1717.0
2014-Apr-09 06:33N 36°17' E 025°47'9 9.1
2014-Apr-09 05:33N 36°20' E 025°36'1110.8
2014-Apr-09 04:33N 36°23' E 025°23'2 1.9
2014-Apr-09 03:33N 36°23' E 025°26'1413.9
2014-Apr-09 02:33N 36°27' E 025°09'1717.2
2014-Apr-09 01:33N 36°36' E 024°51'1717.1
2014-Apr-09 00:33N 36°45' E 024°33'5 5.5
2014-Apr-08 23:33N 36°43' E 024°27'1211.4
2014-Apr-08 22:28N 36°53' E 024°17'1717.3
2014-Apr-08 21:29N 37°08' E 024°07'3517.1
2014-Apr-08 19:27N 37°37' E 023°44'1516.6
2014-Apr-08 18:33N 37°51' E 023°37'6 2.3
2014-Apr-08 16:06N 37°57' E 023°38'0 0.0
2014-Apr-08 15:25N 37°57' E 023°38'0 0.0
2014-Apr-08 14:32N 37°57' E 023°38'0 0.0
2014-Apr-08 13:18N 37°57' E 023°38'0 0.0
2014-Apr-08 12:23N 37°57' E 023°38'0 0.0
2014-Apr-08 11:10N 37°57' E 023°38'0 0.0
2014-Apr-08 10:10N 37°57' E 023°38'0 0.0
2014-Apr-08 07:34N 37°57' E 023°38'0 0.0
2014-Apr-08 06:34N 37°57' E 023°38'0 0.0
2014-Apr-08 05:32N 37°57' E 023°38'0 0.0
2014-Apr-08 04:34N 37°57' E 023°38'0 0.0
2014-Apr-08 03:34N 37°57' E 023°38'0 0.0
2014-Apr-08 02:34N 37°57' E 023°38'0 0.0
2014-Apr-08 01:33N 37°57' E 023°38'0 0.0
2014-Apr-08 00:33N 37°57' E 023°38'0 0.0
2014-Apr-07 23:34N 37°57' E 023°38'0 0.0
2014-Apr-07 22:34N 37°57' E 023°38'0 0.0
2014-Apr-07 21:33N 37°57' E 023°38'  

Dump ship's entire track history

sailing weather and tide predictions

Prevelis — SYDL — position and weather